sensor_id;sensor_type;location;lat;lon;timestamp;P1;durP1;ratioP1;P2;durP2;ratioP2
31798;SDS011;18374;51.136;3.502;2023-03-21T00:00:54;14.00;;;7.72;;
31798;SDS011;18374;51.136;3.502;2023-03-21T00:03:24;15.10;;;7.10;;
31798;SDS011;18374;51.136;3.502;2023-03-21T00:05:53;13.48;;;7.03;;
31798;SDS011;18374;51.136;3.502;2023-03-21T00:08:22;18.05;;;7.22;;
31798;SDS011;18374;51.136;3.502;2023-03-21T00:10:54;18.75;;;7.13;;
31798;SDS011;18374;51.136;3.502;2023-03-21T00:13:29;18.60;;;7.80;;
31798;SDS011;18374;51.136;3.502;2023-03-21T00:16:11;19.10;;;7.03;;
31798;SDS011;18374;51.136;3.502;2023-03-21T00:18:52;14.60;;;8.13;;
31798;SDS011;18374;51.136;3.502;2023-03-21T00:21:20;15.00;;;7.03;;
31798;SDS011;18374;51.136;3.502;2023-03-21T00:24:14;17.05;;;7.35;;
31798;SDS011;18374;51.136;3.502;2023-03-21T00:26:42;16.27;;;7.03;;
31798;SDS011;18374;51.136;3.502;2023-03-21T00:29:10;16.15;;;7.68;;
31798;SDS011;18374;51.136;3.502;2023-03-21T00:31:38;17.27;;;7.45;;
31798;SDS011;18374;51.136;3.502;2023-03-21T00:34:06;17.48;;;8.32;;
31798;SDS011;18374;51.136;3.502;2023-03-21T00:36:33;19.95;;;7.40;;
31798;SDS011;18374;51.136;3.502;2023-03-21T00:39:01;18.25;;;8.25;;
31798;SDS011;18374;51.136;3.502;2023-03-21T00:41:32;18.65;;;7.35;;
31798;SDS011;18374;51.136;3.502;2023-03-21T00:44:09;16.20;;;7.13;;
31798;SDS011;18374;51.136;3.502;2023-03-21T00:46:42;16.63;;;7.63;;
31798;SDS011;18374;51.136;3.502;2023-03-21T00:49:30;17.15;;;6.88;;
31798;SDS011;18374;51.136;3.502;2023-03-21T00:52:05;15.32;;;7.47;;
31798;SDS011;18374;51.136;3.502;2023-03-21T00:54:46;16.63;;;7.40;;
31798;SDS011;18374;51.136;3.502;2023-03-21T00:57:14;13.02;;;6.90;;
31798;SDS011;18374;51.136;3.502;2023-03-21T00:59:42;19.67;;;7.80;;
31798;SDS011;18374;51.136;3.502;2023-03-21T01:02:10;17.98;;;7.53;;
31798;SDS011;18374;51.136;3.502;2023-03-21T01:04:41;16.63;;;6.63;;
31798;SDS011;18374;51.136;3.502;2023-03-21T01:07:09;11.70;;;7.03;;
31798;SDS011;18374;51.136;3.502;2023-03-21T01:09:37;17.58;;;7.72;;
31798;SDS011;18374;51.136;3.502;2023-03-21T01:12:05;14.80;;;7.18;;
31798;SDS011;18374;51.136;3.502;2023-03-21T01:14:36;17.35;;;7.53;;
31798;SDS011;18374;51.136;3.502;2023-03-21T01:17:04;18.55;;;8.05;;
31798;SDS011;18374;51.136;3.502;2023-03-21T01:19:32;17.73;;;7.00;;
31798;SDS011;18374;51.136;3.502;2023-03-21T01:22:16;14.20;;;7.88;;
31798;SDS011;18374;51.136;3.502;2023-03-21T01:24:44;14.32;;;7.60;;
31798;SDS011;18374;51.136;3.502;2023-03-21T01:27:24;21.35;;;8.15;;
31798;SDS011;18374;51.136;3.502;2023-03-21T01:29:52;18.67;;;8.05;;
31798;SDS011;18374;51.136;3.502;2023-03-21T01:32:20;17.05;;;8.02;;
31798;SDS011;18374;51.136;3.502;2023-03-21T01:34:47;17.38;;;7.95;;
31798;SDS011;18374;51.136;3.502;2023-03-21T01:37:15;16.67;;;7.68;;
31798;SDS011;18374;51.136;3.502;2023-03-21T01:39:49;16.88;;;7.85;;
31798;SDS011;18374;51.136;3.502;2023-03-21T01:42:17;15.85;;;7.70;;
31798;SDS011;18374;51.136;3.502;2023-03-21T01:44:53;14.70;;;7.22;;
31798;SDS011;18374;51.136;3.502;2023-03-21T01:47:43;17.67;;;7.72;;
31798;SDS011;18374;51.136;3.502;2023-03-21T01:50:22;16.85;;;8.50;;
31798;SDS011;18374;51.136;3.502;2023-03-21T01:52:59;15.52;;;7.43;;
31798;SDS011;18374;51.136;3.502;2023-03-21T01:55:30;14.98;;;7.22;;
31798;SDS011;18374;51.136;3.502;2023-03-21T01:58:27;15.38;;;7.60;;
31798;SDS011;18374;51.136;3.502;2023-03-21T02:01:07;13.90;;;6.97;;
31798;SDS011;18374;51.136;3.502;2023-03-21T02:03:45;11.88;;;6.53;;
31798;SDS011;18374;51.136;3.502;2023-03-21T02:06:51;22.17;;;7.55;;
31798;SDS011;18374;51.136;3.502;2023-03-21T02:09:53;13.35;;;7.18;;
31798;SDS011;18374;51.136;3.502;2023-03-21T02:12:23;18.55;;;7.18;;
31798;SDS011;18374;51.136;3.502;2023-03-21T02:14:53;13.63;;;7.28;;
31798;SDS011;18374;51.136;3.502;2023-03-21T02:20:46;18.65;;;6.93;;
31798;SDS011;18374;51.136;3.502;2023-03-21T02:32:35;15.02;;;7.13;;
31798;SDS011;18374;51.136;3.502;2023-03-21T02:38:26;15.82;;;6.28;;
31798;SDS011;18374;51.136;3.502;2023-03-21T02:41:05;15.32;;;6.95;;
31798;SDS011;18374;51.136;3.502;2023-03-21T02:46:51;13.05;;;6.50;;
31798;SDS011;18374;51.136;3.502;2023-03-21T02:52:13;15.18;;;6.22;;
31798;SDS011;18374;51.136;3.502;2023-03-21T02:55:11;16.65;;;6.57;;
31798;SDS011;18374;51.136;3.502;2023-03-21T02:58:02;13.35;;;6.28;;
31798;SDS011;18374;51.136;3.502;2023-03-21T03:00:47;9.55;;;5.75;;
31798;SDS011;18374;51.136;3.502;2023-03-21T03:03:29;11.38;;;5.38;;
31798;SDS011;18374;51.136;3.502;2023-03-21T03:06:03;19.13;;;6.60;;
31798;SDS011;18374;51.136;3.502;2023-03-21T03:08:53;19.23;;;6.60;;
31798;SDS011;18374;51.136;3.502;2023-03-21T03:11:38;11.55;;;6.10;;
31798;SDS011;18374;51.136;3.502;2023-03-21T03:20:21;16.25;;;5.63;;
31798;SDS011;18374;51.136;3.502;2023-03-21T03:25:50;14.25;;;6.28;;
31798;SDS011;18374;51.136;3.502;2023-03-21T03:28:30;14.68;;;5.68;;
31798;SDS011;18374;51.136;3.502;2023-03-21T03:31:10;15.88;;;6.13;;
31798;SDS011;18374;51.136;3.502;2023-03-21T03:33:53;14.07;;;6.28;;
31798;SDS011;18374;51.136;3.502;2023-03-21T03:36:27;14.68;;;6.25;;
31798;SDS011;18374;51.136;3.502;2023-03-21T03:39:11;18.20;;;6.60;;
31798;SDS011;18374;51.136;3.502;2023-03-21T03:41:50;13.63;;;6.30;;
31798;SDS011;18374;51.136;3.502;2023-03-21T03:44:52;12.93;;;6.45;;
31798;SDS011;18374;51.136;3.502;2023-03-21T03:47:37;15.35;;;6.93;;
31798;SDS011;18374;51.136;3.502;2023-03-21T03:50:46;15.68;;;6.28;;
31798;SDS011;18374;51.136;3.502;2023-03-21T03:56:04;13.13;;;6.30;;
31798;SDS011;18374;51.136;3.502;2023-03-21T03:58:36;14.38;;;5.93;;
31798;SDS011;18374;51.136;3.502;2023-03-21T04:01:14;18.27;;;6.43;;
31798;SDS011;18374;51.136;3.502;2023-03-21T04:03:44;13.32;;;6.57;;
31798;SDS011;18374;51.136;3.502;2023-03-21T04:06:29;14.57;;;6.43;;
31798;SDS011;18374;51.136;3.502;2023-03-21T04:08:58;13.82;;;6.22;;
31798;SDS011;18374;51.136;3.502;2023-03-21T04:11:32;17.85;;;6.78;;
31798;SDS011;18374;51.136;3.502;2023-03-21T04:13:59;13.93;;;6.32;;
31798;SDS011;18374;51.136;3.502;2023-03-21T04:16:27;14.02;;;6.35;;
31798;SDS011;18374;51.136;3.502;2023-03-21T04:18:59;13.25;;;6.05;;
31798;SDS011;18374;51.136;3.502;2023-03-21T04:21:28;12.95;;;5.88;;
31798;SDS011;18374;51.136;3.502;2023-03-21T04:23:56;17.08;;;6.55;;
31798;SDS011;18374;51.136;3.502;2023-03-21T04:26:25;18.42;;;7.15;;
31798;SDS011;18374;51.136;3.502;2023-03-21T04:29:21;15.57;;;7.15;;
31798;SDS011;18374;51.136;3.502;2023-03-21T04:32:11;17.08;;;7.65;;
31798;SDS011;18374;51.136;3.502;2023-03-21T04:34:52;16.13;;;6.43;;
31798;SDS011;18374;51.136;3.502;2023-03-21T04:37:23;15.77;;;6.72;;
31798;SDS011;18374;51.136;3.502;2023-03-21T04:39:52;15.68;;;7.28;;
31798;SDS011;18374;51.136;3.502;2023-03-21T04:42:20;16.45;;;6.90;;
31798;SDS011;18374;51.136;3.502;2023-03-21T04:44:48;12.45;;;6.30;;
31798;SDS011;18374;51.136;3.502;2023-03-21T04:47:16;15.32;;;6.40;;
31798;SDS011;18374;51.136;3.502;2023-03-21T04:49:46;15.55;;;6.25;;
31798;SDS011;18374;51.136;3.502;2023-03-21T04:52:15;17.48;;;6.25;;
31798;SDS011;18374;51.136;3.502;2023-03-21T04:54:43;17.38;;;6.43;;
31798;SDS011;18374;51.136;3.502;2023-03-21T04:57:11;18.35;;;7.07;;
31798;SDS011;18374;51.136;3.502;2023-03-21T04:59:40;15.75;;;7.40;;
31798;SDS011;18374;51.136;3.502;2023-03-21T05:02:08;15.30;;;6.88;;
31798;SDS011;18374;51.136;3.502;2023-03-21T05:04:36;12.27;;;6.65;;
31798;SDS011;18374;51.136;3.502;2023-03-21T05:07:05;15.32;;;6.75;;
31798;SDS011;18374;51.136;3.502;2023-03-21T05:09:33;14.27;;;6.72;;
31798;SDS011;18374;51.136;3.502;2023-03-21T05:12:02;13.65;;;6.85;;
31798;SDS011;18374;51.136;3.502;2023-03-21T05:14:32;14.63;;;6.88;;
31798;SDS011;18374;51.136;3.502;2023-03-21T05:16:59;14.65;;;6.75;;
31798;SDS011;18374;51.136;3.502;2023-03-21T05:19:32;15.98;;;7.18;;
31798;SDS011;18374;51.136;3.502;2023-03-21T05:22:08;14.60;;;7.53;;
31798;SDS011;18374;51.136;3.502;2023-03-21T05:24:38;14.45;;;7.00;;
31798;SDS011;18374;51.136;3.502;2023-03-21T05:27:13;16.73;;;7.47;;
31798;SDS011;18374;51.136;3.502;2023-03-21T05:29:52;15.55;;;7.65;;
31798;SDS011;18374;51.136;3.502;2023-03-21T05:32:20;15.73;;;7.30;;
31798;SDS011;18374;51.136;3.502;2023-03-21T05:34:48;20.70;;;7.55;;
31798;SDS011;18374;51.136;3.502;2023-03-21T05:37:17;12.52;;;7.50;;
31798;SDS011;18374;51.136;3.502;2023-03-21T05:39:49;12.50;;;7.57;;
31798;SDS011;18374;51.136;3.502;2023-03-21T05:42:23;16.42;;;7.75;;
31798;SDS011;18374;51.136;3.502;2023-03-21T05:44:52;18.70;;;7.55;;
31798;SDS011;18374;51.136;3.502;2023-03-21T05:47:28;15.20;;;6.88;;
31798;SDS011;18374;51.136;3.502;2023-03-21T05:49:58;20.20;;;7.88;;
31798;SDS011;18374;51.136;3.502;2023-03-21T05:52:26;18.90;;;7.78;;
31798;SDS011;18374;51.136;3.502;2023-03-21T05:57:31;17.42;;;7.75;;
31798;SDS011;18374;51.136;3.502;2023-03-21T06:00:07;18.08;;;7.90;;
31798;SDS011;18374;51.136;3.502;2023-03-21T06:02:42;15.65;;;8.20;;
31798;SDS011;18374;51.136;3.502;2023-03-21T06:05:35;16.38;;;8.30;;
31798;SDS011;18374;51.136;3.502;2023-03-21T06:08:05;17.23;;;8.25;;
31798;SDS011;18374;51.136;3.502;2023-03-21T06:10:33;16.45;;;7.80;;
31798;SDS011;18374;51.136;3.502;2023-03-21T06:13:03;19.45;;;8.27;;
31798;SDS011;18374;51.136;3.502;2023-03-21T06:15:32;18.17;;;8.73;;
31798;SDS011;18374;51.136;3.502;2023-03-21T06:18:13;23.05;;;8.65;;
31798;SDS011;18374;51.136;3.502;2023-03-21T06:20:52;13.40;;;7.93;;
31798;SDS011;18374;51.136;3.502;2023-03-21T06:23:20;20.75;;;9.20;;
31798;SDS011;18374;51.136;3.502;2023-03-21T06:25:49;21.67;;;9.55;;
31798;SDS011;18374;51.136;3.502;2023-03-21T06:28:17;19.67;;;9.82;;
31798;SDS011;18374;51.136;3.502;2023-03-21T06:30:46;17.90;;;10.25;;
31798;SDS011;18374;51.136;3.502;2023-03-21T06:33:18;21.67;;;10.50;;
31798;SDS011;18374;51.136;3.502;2023-03-21T06:35:50;25.58;;;12.35;;
31798;SDS011;18374;51.136;3.502;2023-03-21T06:38:24;25.85;;;11.15;;
31798;SDS011;18374;51.136;3.502;2023-03-21T06:40:52;25.20;;;12.93;;
31798;SDS011;18374;51.136;3.502;2023-03-21T06:43:22;26.17;;;12.52;;
31798;SDS011;18374;51.136;3.502;2023-03-21T06:45:51;26.98;;;12.35;;
31798;SDS011;18374;51.136;3.502;2023-03-21T06:48:19;26.85;;;13.02;;
31798;SDS011;18374;51.136;3.502;2023-03-21T06:50:49;33.85;;;13.25;;
31798;SDS011;18374;51.136;3.502;2023-03-21T06:53:21;29.75;;;13.65;;
31798;SDS011;18374;51.136;3.502;2023-03-21T06:56:10;23.90;;;13.18;;
31798;SDS011;18374;51.136;3.502;2023-03-21T06:58:40;34.10;;;14.15;;
31798;SDS011;18374;51.136;3.502;2023-03-21T07:01:16;29.58;;;14.15;;
31798;SDS011;18374;51.136;3.502;2023-03-21T07:03:54;26.92;;;14.00;;
31798;SDS011;18374;51.136;3.502;2023-03-21T07:06:26;31.80;;;13.50;;
31798;SDS011;18374;51.136;3.502;2023-03-21T07:08:54;35.70;;;15.13;;
31798;SDS011;18374;51.136;3.502;2023-03-21T07:11:23;34.83;;;14.65;;
31798;SDS011;18374;51.136;3.502;2023-03-21T07:13:51;26.35;;;14.05;;
31798;SDS011;18374;51.136;3.502;2023-03-21T07:16:19;32.08;;;13.50;;
31798;SDS011;18374;51.136;3.502;2023-03-21T07:18:47;28.33;;;13.05;;
31798;SDS011;18374;51.136;3.502;2023-03-21T07:21:15;24.25;;;12.25;;
31798;SDS011;18374;51.136;3.502;2023-03-21T07:23:44;27.38;;;12.30;;
31798;SDS011;18374;51.136;3.502;2023-03-21T07:26:13;24.25;;;12.60;;
31798;SDS011;18374;51.136;3.502;2023-03-21T07:28:42;28.58;;;13.38;;
31798;SDS011;18374;51.136;3.502;2023-03-21T07:31:11;24.90;;;12.80;;
31798;SDS011;18374;51.136;3.502;2023-03-21T07:33:42;22.20;;;11.40;;
31798;SDS011;18374;51.136;3.502;2023-03-21T07:36:13;24.65;;;11.95;;
31798;SDS011;18374;51.136;3.502;2023-03-21T07:38:42;27.70;;;11.75;;
31798;SDS011;18374;51.136;3.502;2023-03-21T07:41:11;20.67;;;10.50;;
31798;SDS011;18374;51.136;3.502;2023-03-21T07:43:39;23.48;;;10.52;;
31798;SDS011;18374;51.136;3.502;2023-03-21T07:46:10;22.13;;;10.68;;
31798;SDS011;18374;51.136;3.502;2023-03-21T07:48:38;21.23;;;10.45;;
31798;SDS011;18374;51.136;3.502;2023-03-21T07:51:05;21.52;;;9.85;;
31798;SDS011;18374;51.136;3.502;2023-03-21T07:53:34;18.35;;;10.15;;
31798;SDS011;18374;51.136;3.502;2023-03-21T07:56:02;23.42;;;10.60;;
31798;SDS011;18374;51.136;3.502;2023-03-21T07:58:30;24.42;;;10.65;;
31798;SDS011;18374;51.136;3.502;2023-03-21T08:01:00;21.77;;;9.75;;
31798;SDS011;18374;51.136;3.502;2023-03-21T08:03:29;19.33;;;9.55;;
31798;SDS011;18374;51.136;3.502;2023-03-21T08:05:59;23.13;;;9.40;;
31798;SDS011;18374;51.136;3.502;2023-03-21T08:08:27;14.70;;;9.02;;
31798;SDS011;18374;51.136;3.502;2023-03-21T08:10:55;23.17;;;10.18;;
31798;SDS011;18374;51.136;3.502;2023-03-21T08:13:23;24.02;;;9.50;;
31798;SDS011;18374;51.136;3.502;2023-03-21T08:15:51;25.73;;;9.23;;
31798;SDS011;18374;51.136;3.502;2023-03-21T08:18:19;19.10;;;9.00;;
31798;SDS011;18374;51.136;3.502;2023-03-21T08:20:53;20.27;;;8.57;;
31798;SDS011;18374;51.136;3.502;2023-03-21T08:23:23;15.93;;;8.15;;
31798;SDS011;18374;51.136;3.502;2023-03-21T08:25:52;21.08;;;8.43;;
31798;SDS011;18374;51.136;3.502;2023-03-21T08:28:21;16.42;;;8.10;;
31798;SDS011;18374;51.136;3.502;2023-03-21T08:30:49;15.43;;;8.35;;
31798;SDS011;18374;51.136;3.502;2023-03-21T08:33:17;21.30;;;8.88;;
31798;SDS011;18374;51.136;3.502;2023-03-21T08:35:46;15.27;;;8.25;;
31798;SDS011;18374;51.136;3.502;2023-03-21T08:38:14;17.42;;;7.70;;
31798;SDS011;18374;51.136;3.502;2023-03-21T08:40:43;14.98;;;7.20;;
31798;SDS011;18374;51.136;3.502;2023-03-21T08:43:10;14.77;;;7.93;;
31798;SDS011;18374;51.136;3.502;2023-03-21T08:45:40;20.13;;;8.32;;
31798;SDS011;18374;51.136;3.502;2023-03-21T08:48:08;13.70;;;7.78;;
31798;SDS011;18374;51.136;3.502;2023-03-21T08:50:36;13.70;;;7.75;;
31798;SDS011;18374;51.136;3.502;2023-03-21T08:53:04;16.25;;;8.30;;
31798;SDS011;18374;51.136;3.502;2023-03-21T08:55:32;21.85;;;7.25;;
31798;SDS011;18374;51.136;3.502;2023-03-21T08:58:00;13.05;;;7.93;;
31798;SDS011;18374;51.136;3.502;2023-03-21T09:00:28;17.30;;;7.47;;
31798;SDS011;18374;51.136;3.502;2023-03-21T09:02:56;19.35;;;7.25;;
31798;SDS011;18374;51.136;3.502;2023-03-21T09:05:24;18.02;;;8.60;;
31798;SDS011;18374;51.136;3.502;2023-03-21T09:07:54;15.13;;;7.22;;
31798;SDS011;18374;51.136;3.502;2023-03-21T09:10:22;18.02;;;7.65;;
31798;SDS011;18374;51.136;3.502;2023-03-21T09:12:51;13.02;;;7.03;;
31798;SDS011;18374;51.136;3.502;2023-03-21T09:15:21;23.92;;;8.13;;
31798;SDS011;18374;51.136;3.502;2023-03-21T09:17:54;17.13;;;7.47;;
31798;SDS011;18374;51.136;3.502;2023-03-21T09:20:25;17.63;;;7.28;;
31798;SDS011;18374;51.136;3.502;2023-03-21T09:22:57;14.98;;;7.05;;
31798;SDS011;18374;51.136;3.502;2023-03-21T09:25:26;19.63;;;7.40;;
31798;SDS011;18374;51.136;3.502;2023-03-21T09:27:58;15.02;;;7.53;;
31798;SDS011;18374;51.136;3.502;2023-03-21T09:30:31;17.35;;;7.70;;
31798;SDS011;18374;51.136;3.502;2023-03-21T09:33:01;16.35;;;7.47;;
31798;SDS011;18374;51.136;3.502;2023-03-21T09:35:34;20.58;;;7.63;;
31798;SDS011;18374;51.136;3.502;2023-03-21T09:38:03;13.40;;;6.70;;
31798;SDS011;18374;51.136;3.502;2023-03-21T09:47:16;17.50;;;7.03;;
31798;SDS011;18374;51.136;3.502;2023-03-21T09:49:55;15.95;;;6.25;;
31798;SDS011;18374;51.136;3.502;2023-03-21T09:52:45;9.80;;;5.13;;
31798;SDS011;18374;51.136;3.502;2023-03-21T09:55:24;15.90;;;4.75;;
31798;SDS011;18374;51.136;3.502;2023-03-21T10:03:59;12.45;;;4.85;;
31798;SDS011;18374;51.136;3.502;2023-03-21T10:06:36;10.50;;;5.05;;
31798;SDS011;18374;51.136;3.502;2023-03-21T10:09:10;13.93;;;5.05;;
31798;SDS011;18374;51.136;3.502;2023-03-21T10:11:50;11.15;;;4.70;;
31798;SDS011;18374;51.136;3.502;2023-03-21T10:22:49;13.32;;;5.20;;
31798;SDS011;18374;51.136;3.502;2023-03-21T10:25:32;9.25;;;5.15;;
31798;SDS011;18374;51.136;3.502;2023-03-21T10:28:08;9.85;;;5.25;;
31798;SDS011;18374;51.136;3.502;2023-03-21T10:30:44;14.75;;;5.22;;
31798;SDS011;18374;51.136;3.502;2023-03-21T10:33:24;11.50;;;5.30;;
31798;SDS011;18374;51.136;3.502;2023-03-21T10:36:00;13.63;;;4.60;;
31798;SDS011;18374;51.136;3.502;2023-03-21T10:38:32;8.45;;;4.15;;
31798;SDS011;18374;51.136;3.502;2023-03-21T10:41:02;11.60;;;4.88;;
31798;SDS011;18374;51.136;3.502;2023-03-21T10:43:31;5.90;;;3.72;;
31798;SDS011;18374;51.136;3.502;2023-03-21T10:46:11;11.27;;;4.45;;
31798;SDS011;18374;51.136;3.502;2023-03-21T10:48:48;11.15;;;4.50;;
31798;SDS011;18374;51.136;3.502;2023-03-21T10:51:20;8.10;;;3.65;;
31798;SDS011;18374;51.136;3.502;2023-03-21T10:54:00;9.38;;;4.22;;
31798;SDS011;18374;51.136;3.502;2023-03-21T10:56:44;10.70;;;4.03;;
31798;SDS011;18374;51.136;3.502;2023-03-21T10:59:24;8.85;;;4.32;;
31798;SDS011;18374;51.136;3.502;2023-03-21T11:01:56;6.03;;;3.60;;
31798;SDS011;18374;51.136;3.502;2023-03-21T11:04:25;9.48;;;3.70;;
31798;SDS011;18374;51.136;3.502;2023-03-21T11:12:54;8.55;;;3.35;;
31798;SDS011;18374;51.136;3.502;2023-03-21T11:18:14;8.57;;;3.88;;
31798;SDS011;18374;51.136;3.502;2023-03-21T11:20:52;8.85;;;3.70;;
31798;SDS011;18374;51.136;3.502;2023-03-21T11:23:25;8.70;;;4.00;;
31798;SDS011;18374;51.136;3.502;2023-03-21T11:25:57;8.88;;;3.92;;
31798;SDS011;18374;51.136;3.502;2023-03-21T11:28:31;8.63;;;4.35;;
31798;SDS011;18374;51.136;3.502;2023-03-21T11:31:03;8.90;;;3.95;;
31798;SDS011;18374;51.136;3.502;2023-03-21T11:33:36;11.18;;;3.90;;
31798;SDS011;18374;51.136;3.502;2023-03-21T11:38:48;9.00;;;3.75;;
31798;SDS011;18374;51.136;3.502;2023-03-21T11:41:39;8.68;;;3.95;;
31798;SDS011;18374;51.136;3.502;2023-03-21T11:44:22;7.95;;;4.05;;
31798;SDS011;18374;51.136;3.502;2023-03-21T11:47:00;8.55;;;4.22;;
31798;SDS011;18374;51.136;3.502;2023-03-21T11:49:28;10.23;;;4.55;;
31798;SDS011;18374;51.136;3.502;2023-03-21T11:52:00;7.82;;;3.95;;
31798;SDS011;18374;51.136;3.502;2023-03-21T11:54:57;9.13;;;3.90;;
31798;SDS011;18374;51.136;3.502;2023-03-21T11:58:04;10.60;;;3.97;;
31798;SDS011;18374;51.136;3.502;2023-03-21T12:04:40;6.97;;;4.57;;
31798;SDS011;18374;51.136;3.502;2023-03-21T12:21:37;8.02;;;5.25;;
31798;SDS011;18374;51.136;3.502;2023-03-21T12:27:35;11.15;;;5.57;;
31798;SDS011;18374;51.136;3.502;2023-03-21T12:43:20;10.57;;;5.30;;
31798;SDS011;18374;51.136;3.502;2023-03-21T12:51:28;8.90;;;4.93;;
31798;SDS011;18374;51.136;3.502;2023-03-21T12:54:04;6.47;;;4.32;;
31798;SDS011;18374;51.136;3.502;2023-03-21T13:06:05;5.70;;;4.22;;
31798;SDS011;18374;51.136;3.502;2023-03-21T13:08:55;10.10;;;4.68;;
31798;SDS011;18374;51.136;3.502;2023-03-21T13:11:26;7.13;;;4.50;;
31798;SDS011;18374;51.136;3.502;2023-03-21T13:14:15;8.07;;;4.85;;
31798;SDS011;18374;51.136;3.502;2023-03-21T13:16:52;7.43;;;3.90;;
31798;SDS011;18374;51.136;3.502;2023-03-21T13:19:28;12.23;;;3.85;;
31798;SDS011;18374;51.136;3.502;2023-03-21T13:22:06;9.75;;;3.97;;
31798;SDS011;18374;51.136;3.502;2023-03-21T13:24:49;7.35;;;3.30;;
31798;SDS011;18374;51.136;3.502;2023-03-21T13:27:41;4.85;;;3.47;;
31798;SDS011;18374;51.136;3.502;2023-03-21T13:32:41;7.43;;;3.00;;
31798;SDS011;18374;51.136;3.502;2023-03-21T13:40:47;4.90;;;3.75;;
31798;SDS011;18374;51.136;3.502;2023-03-21T13:46:12;32.95;;;18.58;;
31798;SDS011;18374;51.136;3.502;2023-03-21T13:59:17;7.53;;;4.55;;
31798;SDS011;18374;51.136;3.502;2023-03-21T14:05:06;6.70;;;3.28;;
31798;SDS011;18374;51.136;3.502;2023-03-21T14:07:45;5.00;;;3.63;;
31798;SDS011;18374;51.136;3.502;2023-03-21T14:10:32;6.95;;;3.85;;
31798;SDS011;18374;51.136;3.502;2023-03-21T14:13:06;4.72;;;3.17;;
31798;SDS011;18374;51.136;3.502;2023-03-21T14:15:45;6.32;;;3.00;;
31798;SDS011;18374;51.136;3.502;2023-03-21T14:18:24;3.85;;;2.50;;
31798;SDS011;18374;51.136;3.502;2023-03-21T14:21:15;5.30;;;2.50;;
31798;SDS011;18374;51.136;3.502;2023-03-21T14:24:01;5.93;;;2.38;;
31798;SDS011;18374;51.136;3.502;2023-03-21T14:26:46;3.38;;;1.90;;
31798;SDS011;18374;51.136;3.502;2023-03-21T14:29:22;4.25;;;2.20;;
31798;SDS011;18374;51.136;3.502;2023-03-21T14:31:57;4.55;;;2.35;;
31798;SDS011;18374;51.136;3.502;2023-03-21T14:34:27;2.90;;;2.00;;
31798;SDS011;18374;51.136;3.502;2023-03-21T14:36:58;5.95;;;2.17;;
31798;SDS011;18374;51.136;3.502;2023-03-21T14:39:27;4.20;;;2.45;;
31798;SDS011;18374;51.136;3.502;2023-03-21T14:42:05;4.13;;;2.33;;
31798;SDS011;18374;51.136;3.502;2023-03-21T14:44:38;3.95;;;2.10;;
31798;SDS011;18374;51.136;3.502;2023-03-21T14:47:24;4.55;;;2.13;;
31798;SDS011;18374;51.136;3.502;2023-03-21T14:49:55;2.65;;;2.10;;
31798;SDS011;18374;51.136;3.502;2023-03-21T14:52:25;4.97;;;2.38;;
31798;SDS011;18374;51.136;3.502;2023-03-21T14:54:57;5.32;;;2.50;;
31798;SDS011;18374;51.136;3.502;2023-03-21T14:57:28;5.10;;;2.45;;
31798;SDS011;18374;51.136;3.502;2023-03-21T15:00:00;5.38;;;2.00;;
31798;SDS011;18374;51.136;3.502;2023-03-21T15:02:38;3.88;;;2.08;;
31798;SDS011;18374;51.136;3.502;2023-03-21T15:07:42;4.78;;;1.95;;
31798;SDS011;18374;51.136;3.502;2023-03-21T15:10:26;2.30;;;1.42;;
31798;SDS011;18374;51.136;3.502;2023-03-21T15:12:58;5.72;;;1.50;;
31798;SDS011;18374;51.136;3.502;2023-03-21T15:15:29;2.35;;;1.48;;
31798;SDS011;18374;51.136;3.502;2023-03-21T15:18:01;4.90;;;1.52;;
31798;SDS011;18374;51.136;3.502;2023-03-21T15:20:33;2.97;;;1.48;;
31798;SDS011;18374;51.136;3.502;2023-03-21T15:23:05;5.57;;;1.45;;
31798;SDS011;18374;51.136;3.502;2023-03-21T15:26:00;4.10;;;1.50;;
31798;SDS011;18374;51.136;3.502;2023-03-21T15:28:31;2.03;;;1.55;;
31798;SDS011;18374;51.136;3.502;2023-03-21T15:31:01;3.60;;;1.67;;
31798;SDS011;18374;51.136;3.502;2023-03-21T15:33:30;7.97;;;1.80;;
31798;SDS011;18374;51.136;3.502;2023-03-21T15:35:59;4.65;;;1.45;;
31798;SDS011;18374;51.136;3.502;2023-03-21T15:38:28;5.18;;;1.52;;
31798;SDS011;18374;51.136;3.502;2023-03-21T15:41:21;4.63;;;1.58;;
31798;SDS011;18374;51.136;3.502;2023-03-21T15:46:43;5.15;;;1.83;;
31798;SDS011;18374;51.136;3.502;2023-03-21T15:54:43;3.67;;;1.50;;
31798;SDS011;18374;51.136;3.502;2023-03-21T15:57:25;5.35;;;1.88;;
31798;SDS011;18374;51.136;3.502;2023-03-21T16:00:15;4.20;;;1.70;;
31798;SDS011;18374;51.136;3.502;2023-03-21T16:03:03;7.00;;;2.03;;
31798;SDS011;18374;51.136;3.502;2023-03-21T16:08:42;3.88;;;1.70;;
31798;SDS011;18374;51.136;3.502;2023-03-21T16:13:51;4.60;;;3.88;;
31798;SDS011;18374;51.136;3.502;2023-03-21T16:16:21;7.57;;;2.90;;
31798;SDS011;18374;51.136;3.502;2023-03-21T16:18:52;4.85;;;2.40;;
31798;SDS011;18374;51.136;3.502;2023-03-21T16:21:26;8.90;;;4.57;;
31798;SDS011;18374;51.136;3.502;2023-03-21T16:23:56;4.35;;;2.33;;
31798;SDS011;18374;51.136;3.502;2023-03-21T16:26:26;10.40;;;5.90;;
31798;SDS011;18374;51.136;3.502;2023-03-21T16:28:56;11.25;;;2.78;;
31798;SDS011;18374;51.136;3.502;2023-03-21T16:31:26;7.45;;;2.22;;
31798;SDS011;18374;51.136;3.502;2023-03-21T16:33:56;4.63;;;2.55;;
31798;SDS011;18374;51.136;3.502;2023-03-21T16:36:28;5.30;;;2.65;;
31798;SDS011;18374;51.136;3.502;2023-03-21T16:38:58;8.70;;;3.30;;
31798;SDS011;18374;51.136;3.502;2023-03-21T16:41:26;5.35;;;2.90;;
31798;SDS011;18374;51.136;3.502;2023-03-21T16:43:54;8.60;;;2.10;;
31798;SDS011;18374;51.136;3.502;2023-03-21T16:46:23;3.25;;;2.22;;
31798;SDS011;18374;51.136;3.502;2023-03-21T16:48:54;5.13;;;2.30;;
31798;SDS011;18374;51.136;3.502;2023-03-21T16:51:25;5.97;;;2.25;;
31798;SDS011;18374;51.136;3.502;2023-03-21T16:54:02;4.57;;;1.80;;
31798;SDS011;18374;51.136;3.502;2023-03-21T16:56:37;3.85;;;1.83;;
31798;SDS011;18374;51.136;3.502;2023-03-21T17:01:44;7.88;;;2.47;;
31798;SDS011;18374;51.136;3.502;2023-03-21T17:04:15;2.75;;;1.70;;
31798;SDS011;18374;51.136;3.502;2023-03-21T17:06:45;3.83;;;1.38;;
31798;SDS011;18374;51.136;3.502;2023-03-21T17:09:17;4.05;;;1.65;;
31798;SDS011;18374;51.136;3.502;2023-03-21T17:11:48;4.00;;;1.88;;
31798;SDS011;18374;51.136;3.502;2023-03-21T17:14:16;7.35;;;1.77;;
31798;SDS011;18374;51.136;3.502;2023-03-21T17:16:44;3.55;;;1.60;;
31798;SDS011;18374;51.136;3.502;2023-03-21T17:21:42;4.93;;;1.60;;
31798;SDS011;18374;51.136;3.502;2023-03-21T17:24:10;3.75;;;1.33;;
31798;SDS011;18374;51.136;3.502;2023-03-21T17:26:39;2.13;;;1.40;;
31798;SDS011;18374;51.136;3.502;2023-03-21T17:29:09;3.10;;;1.55;;
31798;SDS011;18374;51.136;3.502;2023-03-21T17:31:41;5.60;;;1.60;;
31798;SDS011;18374;51.136;3.502;2023-03-21T17:34:13;2.38;;;1.60;;
31798;SDS011;18374;51.136;3.502;2023-03-21T17:36:43;9.05;;;2.25;;
31798;SDS011;18374;51.136;3.502;2023-03-21T17:39:14;5.05;;;2.40;;
31798;SDS011;18374;51.136;3.502;2023-03-21T17:41:50;4.30;;;1.80;;
31798;SDS011;18374;51.136;3.502;2023-03-21T17:44:19;6.93;;;2.25;;
31798;SDS011;18374;51.136;3.502;2023-03-21T17:46:47;5.50;;;2.10;;
31798;SDS011;18374;51.136;3.502;2023-03-21T17:49:17;3.38;;;1.88;;
31798;SDS011;18374;51.136;3.502;2023-03-21T17:51:47;6.03;;;2.05;;
31798;SDS011;18374;51.136;3.502;2023-03-21T17:54:14;5.57;;;2.30;;
31798;SDS011;18374;51.136;3.502;2023-03-21T17:56:42;7.80;;;2.65;;
31798;SDS011;18374;51.136;3.502;2023-03-21T17:59:11;4.30;;;2.03;;
31798;SDS011;18374;51.136;3.502;2023-03-21T18:01:40;4.20;;;2.05;;